Accueil
METAR-TAF:

METAR-TAF

Aéroports :

Aéroport de Split

Split, Croatie

latitude: 43-32N, longitude: 016-18E, altitude: 19 m

Observation

Le bulletin a été fait il y a 23 minutes, à 04:00 UTC
Vent 13 kt de nord/nord-est
Température 8°C
Humidité 31%
Pression 1017 hPa
Visibilité 10 km ou plus
pas de nuages en-dessous de 1500 mètres et pas de cumulonimbus.

METAR: LDSP 300400Z AUTO 03013KT CAVOK 08/M08 Q1017 NOSIG

Heure: 05:23 (04:23 UTC)

Prévision

Le bulletin a été fait il y a 4 heures et 58 minutes, à 23:25 UTC
Prévision valable du 30 à 00 UTC au 01 à 00 UTC
Vent 10 kt de nord/nord-est
Visibilité 10 km ou plus
pas de nuages en-dessous de 1500 mètres et pas de cumulonimbus.
Evoluant progressivement
du 30 à 09 UTC au 30 à 11 UTC
Vent 2 kt de direction variable

TAF: LDSP 292325Z 3000/0100 02010KT CAVOK TX14/3013Z TN05/3006Z BECMG 3009/3011 VRB02KT

Observations et prévisions météorologiques de plus de 4000 aéroports (messages METAR et TAF).

Les stations disponibles sont représentées par des disques jaunes et rouges sur la carte.

Passer la souris dessus pour voir le nom de la station.

Cliquer dessus pour voir les observations et prévisions météorologiques.

Pour changer de carte: cliquez sur les boutons verts avec une croix noire pour zoomer, sur le bouton vert avec un tiret pour effectuer un zoom arrière, ou sur les flèches vertes pour les cartes adjacentes.


METAR-TAF: